createdAt,value
2019-03-23T00:00:01.229Z,3.2
2019-03-23T00:10:01.294Z,3.3
2019-03-23T00:15:01.149Z,3.4
2019-03-23T00:25:01.160Z,3.3
2019-03-23T00:30:01.150Z,3.2
2019-03-23T00:35:01.180Z,3.1
2019-03-23T00:40:01.185Z,3.0
2019-03-23T00:45:01.158Z,3.0
2019-03-23T00:50:01.151Z,2.9
2019-03-23T01:00:01.135Z,3.0
2019-03-23T01:10:01.285Z,2.9
2019-03-23T01:15:01.210Z,2.9
2019-03-23T01:30:01.228Z,2.9
2019-03-23T01:40:01.231Z,3.0
2019-03-23T01:45:01.265Z,2.9
2019-03-23T01:56:01.158Z,2.8
2019-03-23T02:01:01.186Z,2.7
2019-03-23T02:11:01.225Z,2.8
2019-03-23T02:16:01.291Z,2.9
2019-03-23T02:26:01.184Z,3.0
2019-03-23T02:41:01.416Z,3.0
2019-03-23T02:46:01.251Z,3.1
2019-03-23T03:01:01.296Z,3.1
2019-03-23T03:07:01.214Z,3.0
2019-03-23T03:17:01.213Z,2.9
2019-03-23T03:27:01.288Z,2.8
2019-03-23T03:32:01.941Z,2.9
2019-03-23T03:47:01.224Z,2.9
2019-03-23T04:02:01.214Z,3.0
2019-03-23T04:12:01.223Z,3.1
2019-03-23T04:27:01.319Z,3.1
2019-03-23T04:32:01.154Z,3.0
2019-03-23T04:47:01.205Z,3.0
2019-03-23T04:57:01.230Z,3.1
2019-03-23T05:12:06.211Z,3.1
2019-03-23T05:17:01.281Z,3.0
2019-03-23T05:27:01.743Z,2.9
2019-03-23T05:42:01.222Z,3.0
2019-03-23T05:52:01.569Z,2.9
2019-03-23T06:07:01.323Z,2.8
2019-03-23T06:12:01.141Z,2.7
2019-03-23T06:17:06.295Z,2.8
2019-03-23T06:22:01.136Z,2.7
2019-03-23T06:32:01.288Z,2.8
2019-03-23T06:37:01.217Z,2.9
2019-03-23T06:42:01.150Z,2.8
2019-03-23T06:47:01.279Z,2.9
2019-03-23T06:52:01.914Z,2.8
2019-03-23T07:03:01.218Z,2.7
2019-03-23T07:18:01.385Z,2.7
2019-03-23T07:33:01.341Z,2.7
2019-03-23T07:48:01.161Z,2.7
2019-03-23T07:53:01.231Z,2.6
2019-03-23T08:08:01.189Z,2.5
2019-03-23T08:13:01.189Z,2.4
2019-03-23T08:18:01.200Z,2.5
2019-03-23T08:23:01.259Z,2.4
2019-03-23T08:38:01.159Z,2.4
2019-03-23T08:49:01.220Z,2.3
2019-03-23T08:54:01.287Z,2.2
2019-03-23T08:59:01.145Z,2.1
2019-03-23T09:04:01.154Z,2.0
2019-03-23T09:09:01.186Z,2.1
2019-03-23T09:14:01.318Z,2.2
2019-03-23T09:19:01.159Z,2.6
2019-03-23T09:24:01.225Z,3.5
2019-03-23T09:29:01.142Z,5.0
2019-03-23T09:34:01.277Z,5.9
2019-03-23T09:39:01.116Z,7.7
2019-03-23T09:44:01.146Z,8.4
2019-03-23T09:49:01.147Z,9.6
2019-03-23T09:54:01.230Z,10.0
2019-03-23T09:59:01.153Z,11.1
2019-03-23T10:04:01.180Z,10.7
2019-03-23T10:09:01.182Z,10.8
2019-03-23T10:14:03.103Z,10.0
2019-03-23T10:19:01.176Z,9.8
2019-03-23T10:24:01.212Z,8.9
2019-03-23T10:29:01.146Z,8.1
2019-03-23T10:34:01.195Z,7.4
2019-03-23T10:39:01.147Z,6.8
2019-03-23T10:44:01.247Z,5.8
2019-03-23T10:49:01.155Z,5.2
2019-03-23T10:54:01.673Z,4.7
2019-03-23T10:59:01.187Z,5.0
2019-03-23T11:04:01.326Z,5.4
2019-03-23T11:09:01.171Z,5.8
2019-03-23T11:15:01.281Z,5.6
2019-03-23T11:20:01.191Z,6.2
2019-03-23T11:25:01.268Z,6.3
2019-03-23T11:30:01.155Z,6.4
2019-03-23T11:35:01.231Z,6.3
2019-03-23T11:40:01.190Z,7.4
2019-03-23T11:45:01.230Z,7.1
2019-03-23T11:55:01.276Z,7.5
2019-03-23T12:00:01.143Z,7.8
2019-03-23T12:05:01.152Z,7.4
2019-03-23T12:10:01.155Z,7.1
2019-03-23T12:15:01.221Z,6.8
2019-03-23T12:20:01.961Z,6.3
2019-03-23T12:25:01.289Z,5.5
2019-03-23T12:30:06.851Z,5.4
2019-03-23T12:35:01.230Z,5.7
2019-03-23T12:40:01.156Z,6.6
2019-03-23T12:45:01.228Z,6.5
2019-03-23T12:51:02.024Z,6.4
2019-03-23T12:56:01.308Z,5.7
2019-03-23T13:01:01.187Z,5.3
2019-03-23T13:06:01.292Z,4.3
2019-03-23T13:16:01.252Z,4.2
2019-03-23T13:21:02.887Z,3.9
2019-03-23T13:26:01.220Z,4.2
2019-03-23T13:31:01.152Z,3.8
2019-03-23T13:36:01.287Z,3.5
2019-03-23T13:41:01.163Z,3.4
2019-03-23T13:46:01.268Z,3.9
2019-03-23T13:51:01.143Z,3.7
2019-03-23T13:56:01.245Z,3.9
2019-03-23T14:01:01.153Z,4.2
2019-03-23T14:06:01.307Z,4.3
2019-03-23T14:11:01.149Z,3.9
2019-03-23T14:16:01.203Z,3.8
2019-03-23T14:21:01.130Z,3.5
2019-03-23T14:26:01.262Z,3.2
2019-03-23T14:31:01.162Z,3.9
2019-03-23T14:36:01.346Z,4.3
2019-03-23T14:46:01.215Z,4.8
2019-03-23T14:51:01.150Z,5.0
2019-03-23T14:56:01.281Z,4.6
2019-03-23T15:01:01.150Z,5.1
2019-03-23T15:16:01.315Z,5.3
2019-03-23T15:21:01.174Z,5.8
2019-03-23T15:26:01.283Z,5.2
2019-03-23T15:31:01.161Z,5.3
2019-03-23T15:36:02.695Z,5.8
2019-03-23T15:41:01.181Z,6.5
2019-03-23T15:46:01.201Z,5.6
2019-03-23T15:56:01.251Z,6.3
2019-03-23T16:01:01.132Z,5.9
2019-03-23T16:06:01.280Z,5.2
2019-03-23T16:11:01.185Z,5.3
2019-03-23T16:16:01.222Z,5.1
2019-03-23T16:21:01.198Z,5.0
2019-03-23T16:26:01.219Z,5.2
2019-03-23T16:31:01.151Z,5.6
2019-03-23T16:36:03.444Z,6.2
2019-03-23T16:41:01.131Z,7.0
2019-03-23T16:51:01.302Z,6.7
2019-03-23T16:56:01.337Z,5.9
2019-03-23T17:06:01.290Z,5.4
2019-03-23T17:11:01.156Z,5.1
2019-03-23T17:16:01.279Z,5.3
2019-03-23T17:21:01.162Z,5.8
2019-03-23T17:26:01.218Z,5.6
2019-03-23T17:31:01.148Z,5.7
2019-03-23T17:36:01.214Z,5.6
2019-03-23T17:41:01.154Z,5.4
2019-03-23T17:46:01.265Z,5.5
2019-03-23T17:56:01.214Z,5.4
2019-03-23T18:01:01.164Z,5.2
2019-03-23T18:06:01.166Z,5.1
2019-03-23T18:11:01.152Z,4.9
2019-03-23T18:16:01.146Z,5.1
2019-03-23T18:21:01.148Z,4.7
2019-03-23T18:26:01.282Z,4.8
2019-03-23T18:31:01.154Z,4.7
2019-03-23T18:36:01.219Z,4.4
2019-03-23T18:41:01.153Z,3.9
2019-03-23T18:46:01.288Z,4.4
2019-03-23T18:51:01.190Z,4.5
2019-03-23T18:56:01.290Z,4.6
2019-03-23T19:01:01.204Z,4.5
2019-03-23T19:06:01.218Z,4.9
2019-03-23T19:11:01.161Z,4.3
2019-03-23T19:21:01.219Z,4.0
2019-03-23T19:26:01.295Z,3.9
2019-03-23T19:31:01.163Z,3.7
2019-03-23T19:36:01.255Z,3.9
2019-03-23T19:41:01.157Z,3.8
2019-03-23T19:51:03.597Z,3.7
2019-03-23T19:56:01.370Z,3.9
2019-03-23T20:01:01.142Z,3.5
2019-03-23T20:06:01.291Z,3.3
2019-03-23T20:16:01.161Z,3.5
2019-03-23T20:21:01.155Z,3.2
2019-03-23T20:26:01.215Z,3.5
2019-03-23T20:36:01.178Z,3.6
2019-03-23T20:51:01.310Z,3.3
2019-03-23T20:56:01.159Z,3.5
2019-03-23T21:01:01.194Z,3.2
2019-03-23T21:06:01.196Z,3.1
2019-03-23T21:21:01.201Z,3.0
2019-03-23T21:26:01.226Z,3.1
2019-03-23T21:36:01.226Z,2.9
2019-03-23T21:41:01.195Z,3.0
2019-03-23T21:52:01.244Z,2.8
2019-03-23T21:57:01.244Z,2.7
2019-03-23T22:02:02.153Z,2.5
2019-03-23T22:07:01.185Z,2.1
2019-03-23T22:12:01.211Z,1.7
2019-03-23T22:22:01.244Z,1.5
2019-03-23T22:27:01.277Z,1.4
2019-03-23T22:32:01.151Z,1.6
2019-03-23T22:37:01.438Z,1.9
2019-03-23T22:42:01.161Z,1.8
2019-03-23T22:47:01.284Z,2.0
2019-03-23T22:57:01.283Z,1.9
2019-03-23T23:02:01.147Z,1.6
2019-03-23T23:07:01.230Z,1.5
2019-03-23T23:12:01.178Z,1.4
2019-03-23T23:17:01.211Z,1.3
2019-03-23T23:22:01.182Z,1.4
2019-03-23T23:27:01.283Z,1.5
2019-03-23T23:32:01.158Z,1.4
2019-03-23T23:37:01.300Z,1.3
2019-03-23T23:42:01.154Z,1.2
2019-03-23T23:47:01.260Z,1.1
2019-03-23T23:52:01.210Z,1.0
2019-03-23T23:57:01.209Z,1.1
